Time;durP1;ratioP1;P1;durP2;ratioP2;P2;SDS_P1;SDS_P2;PMS_P1;PMS_P2;Temp;Humidity;BMP_temperature;BMP_pressure;BME280_temperature;BME280_humidity;BME280_pressure;Samples;Min_cycle;Max_cycle;Signal;HPM_P1;HPM_P2
2022/06/24 00:00:33;;;;;;;6.78;1.77;;;19.70;99.90;;;;;;5041650;28;20029;-82
2022/06/24 00:03:00;;;;;;;3.72;0.95;;;19.70;99.90;;;;;;5045946;28;20013;-82
2022/06/24 00:05:29;;;;;;;2.80;1.17;;;19.60;99.90;;;;;;5064315;28;20029;-82
2022/06/24 00:07:55;;;;;;;4.22;0.80;;;19.50;99.90;;;;;;5046792;28;20029;-82
2022/06/24 00:10:23;;;;;;;3.50;1.48;;;19.50;99.90;;;;;;5064302;28;20021;-81
2022/06/24 00:12:50;;;;;;;3.38;1.20;;;19.50;99.90;;;;;;5063505;28;20044;-82
2022/06/24 00:15:26;;;;;;;6.20;1.58;;;19.40;99.90;;;;;;5062742;28;20025;-82
2022/06/24 00:17:52;;;;;;;3.47;0.73;;;19.40;99.90;;;;;;5051350;28;20113;-82
2022/06/24 00:20:20;;;;;;;3.30;0.70;;;19.40;99.90;;;;;;5043831;28;20033;-83
2022/06/24 00:22:48;;;;;;;2.67;0.68;;;19.30;99.90;;;;;;5025069;28;20036;-83
2022/06/24 00:25:18;;;;;;;3.72;0.80;;;19.30;99.90;;;;;;5025372;28;20032;-80
2022/06/24 00:28:07;;;;;;;1.23;0.65;;;19.30;99.90;;;;;;5026042;28;20041;-82
2022/06/24 00:30:43;;;;;;;2.10;0.75;;;19.30;99.90;;;;;;5023770;28;20144;-83
2022/06/24 00:33:14;;;;;;;2.30;0.63;;;19.30;99.90;;;;;;5041681;28;20032;-81
2022/06/24 00:35:46;;;;;;;1.63;0.77;;;19.40;99.90;;;;;;5043612;28;20070;-80
2022/06/24 00:38:20;;;;;;;5.22;0.85;;;19.40;99.90;;;;;;5041065;28;20260;-81
2022/06/24 00:40:47;;;;;;;3.40;0.77;;;19.40;99.90;;;;;;5043400;28;20044;-83
2022/06/24 00:43:22;;;;;;;1.08;0.43;;;19.40;99.90;;;;;;5040795;28;20466;-82
2022/06/24 00:45:51;;;;;;;1.45;0.65;;;19.40;99.90;;;;;;5041288;28;20025;-82
2022/06/24 00:48:21;;;;;;;1.83;0.77;;;19.40;99.90;;;;;;5039416;28;20493;-80
2022/06/24 00:50:48;;;;;;;4.93;0.93;;;19.30;99.90;;;;;;5050459;28;20040;-80
2022/06/24 00:53:14;;;;;;;0.68;0.50;;;19.30;99.90;;;;;;5060819;28;20039;-79
2022/06/24 00:55:43;;;;;;;5.03;0.88;;;19.20;99.90;;;;;;5040785;28;20078;-81
2022/06/24 00:58:14;;;;;;;1.13;0.60;;;19.20;99.90;;;;;;5041400;28;20116;-80
2022/06/24 01:00:43;;;;;;;2.40;0.47;;;19.20;99.90;;;;;;5057438;28;20095;-80
2022/06/24 01:03:09;;;;;;;1.23;0.55;;;19.20;99.90;;;;;;5037205;28;20032;-79
2022/06/24 01:05:34;;;;;;;1.77;0.50;;;19.20;99.90;;;;;;5060679;28;20033;-79
2022/06/24 01:08:07;;;;;;;2.15;1.20;;;19.10;99.90;;;;;;5046596;28;20055;-82
2022/06/24 01:10:33;;;;;;;1.52;0.60;;;19.10;99.90;;;;;;5022549;28;20423;-80
2022/06/24 01:12:59;;;;;;;2.95;0.85;;;19.20;99.90;;;;;;5043169;28;20100;-81
2022/06/24 01:15:25;;;;;;;1.27;0.70;;;19.10;99.90;;;;;;5043791;28;20010;-80
2022/06/24 01:17:51;;;;;;;3.05;0.60;;;19.20;99.90;;;;;;5041126;28;20037;-81
2022/06/24 01:20:17;;;;;;;2.33;0.60;;;19.20;99.90;;;;;;5045525;28;20025;-85
2022/06/24 01:22:43;;;;;;;2.17;0.40;;;19.20;99.90;;;;;;5039613;28;20033;-84
2022/06/24 01:25:10;;;;;;;4.10;0.60;;;19.20;99.90;;;;;;5057487;28;20026;-82
2022/06/24 01:27:36;;;;;;;2.03;0.70;;;19.20;99.90;;;;;;5057393;28;20017;-83
2022/06/24 01:30:02;;;;;;;2.30;0.60;;;19.20;99.90;;;;;;5053837;28;20079;-81
2022/06/24 01:32:28;;;;;;;4.25;1.70;;;19.20;99.90;;;;;;5042367;28;20041;-82
2022/06/24 01:34:56;;;;;;;2.17;1.23;;;19.20;99.90;;;;;;5040008;28;20021;-80
2022/06/24 01:37:22;;;;;;;3.80;1.20;;;19.20;99.90;;;;;;5038928;28;20116;-80
2022/06/24 01:39:48;;;;;;;2.63;0.60;;;19.20;99.90;;;;;;5040057;28;20113;-80
2022/06/24 01:42:13;;;;;;;1.55;0.52;;;19.20;99.90;;;;;;5041738;28;20076;-82
2022/06/24 01:44:39;;;;;;;0.80;0.60;;;19.10;99.90;;;;;;5020696;28;20024;-81
2022/06/24 01:47:05;;;;;;;2.80;0.70;;;19.10;99.90;;;;;;5040054;28;20022;-82
2022/06/24 01:49:30;;;;;;;1.67;0.50;;;19.10;99.90;;;;;;5038819;28;20026;-81
2022/06/24 01:51:59;;;;;;;1.30;0.50;;;19.10;99.90;;;;;;5036247;28;20092;-81
2022/06/24 01:54:26;;;;;;;2.65;0.55;;;19.10;99.90;;;;;;5019969;28;20040;-82
2022/06/24 01:56:53;;;;;;;2.70;0.70;;;19.10;99.90;;;;;;5041133;28;20081;-83
2022/06/24 01:59:18;;;;;;;0.57;0.52;;;19.00;99.90;;;;;;5039347;28;20021;-80
2022/06/24 02:01:44;;;;;;;0.77;0.50;;;18.90;99.90;;;;;;5038040;28;20032;-82
2022/06/24 02:04:10;;;;;;;1.88;0.90;;;18.90;99.90;;;;;;5037895;28;20060;-81
2022/06/24 02:06:36;;;;;;;1.88;0.60;;;18.90;99.90;;;;;;5044182;28;20028;-82
2022/06/24 02:09:02;;;;;;;1.77;0.73;;;18.80;99.90;;;;;;5071403;28;20025;-83
2022/06/24 02:14:14;;;;;;;1.40;0.47;;;18.80;99.90;;;;;;5057057;28;20445;-82
2022/06/24 02:16:40;;;;;;;1.08;0.50;;;18.70;99.90;;;;;;5037068;28;20037;-82
2022/06/24 02:19:07;;;;;;;2.13;0.60;;;18.70;99.90;;;;;;5037709;28;20094;-83
2022/06/24 02:21:33;;;;;;;0.93;0.40;;;18.70;99.90;;;;;;5039833;28;20029;-82
2022/06/24 02:23:59;;;;;;;0.50;0.50;;;18.70;99.90;;;;;;5040030;28;20156;-82
2022/06/24 02:26:25;;;;;;;1.77;0.75;;;18.60;99.90;;;;;;5040784;28;20046;-83
2022/06/24 02:28:52;;;;;;;2.05;0.65;;;18.60;99.90;;;;;;5041162;28;20037;-82
2022/06/24 02:31:18;;;;;;;0.45;0.40;;;18.60;99.90;;;;;;5023111;28;20439;-82
2022/06/24 02:33:44;;;;;;;1.48;0.75;;;18.60;99.90;;;;;;5041254;28;20094;-81
2022/06/24 02:36:09;;;;;;;3.33;0.85;;;18.60;99.90;;;;;;5041335;28;20032;-81
2022/06/24 02:38:36;;;;;;;1.88;0.60;;;18.60;99.90;;;;;;5043589;28;20028;-82
2022/06/24 02:41:02;;;;;;;2.95;0.98;;;18.60;99.90;;;;;;5040620;28;20022;-82
2022/06/24 02:43:36;;;;;;;2.28;1.15;;;18.60;99.90;;;;;;5041576;28;20433;-83
2022/06/24 02:46:04;;;;;;;4.13;0.80;;;18.60;99.90;;;;;;5040749;28;20453;-82
2022/06/24 02:48:33;;;;;;;2.78;0.75;;;18.60;99.90;;;;;;5041091;28;20017;-82
2022/06/24 02:51:00;;;;;;;5.88;0.90;;;18.70;99.90;;;;;;5040661;28;20036;-83
2022/06/24 02:53:28;;;;;;;1.08;0.75;;;18.70;99.90;;;;;;5040346;28;20021;-83
2022/06/24 02:56:03;;;;;;;1.15;0.75;;;18.70;99.90;;;;;;5040078;28;20034;-81
2022/06/24 02:58:30;;;;;;;3.35;1.10;;;18.70;99.90;;;;;;5042662;28;20356;-83
2022/06/24 03:00:56;;;;;;;2.00;0.75;;;18.70;99.90;;;;;;5040263;28;20013;-81
2022/06/24 03:03:22;;;;;;;2.30;0.77;;;18.70;99.90;;;;;;5039429;28;20064;-82
2022/06/24 03:05:49;;;;;;;1.90;0.65;;;18.70;99.90;;;;;;5040432;28;20030;-80
2022/06/24 03:08:17;;;;;;;2.28;0.70;;;18.70;99.90;;;;;;5039898;28;20083;-81
2022/06/24 03:10:43;;;;;;;1.85;0.77;;;18.70;99.90;;;;;;5040440;28;20023;-81
2022/06/24 03:13:09;;;;;;;1.83;0.60;;;18.70;99.90;;;;;;5042348;28;20033;-82
2022/06/24 03:15:35;;;;;;;1.83;0.77;;;18.70;99.90;;;;;;5039707;28;20036;-81
2022/06/24 03:18:01;;;;;;;3.75;1.15;;;18.70;99.90;;;;;;5040100;28;20112;-82
2022/06/24 03:20:27;;;;;;;3.92;0.95;;;18.80;99.90;;;;;;5040650;28;20036;-82
2022/06/24 03:22:53;;;;;;;0.60;0.60;;;18.70;99.90;;;;;;5023515;28;20486;-83
2022/06/24 03:25:19;;;;;;;5.10;1.20;;;18.70;99.90;;;;;;5040586;28;20025;-83
2022/06/24 03:27:45;;;;;;;4.10;1.17;;;18.70;99.90;;;;;;5039853;28;20041;-81
2022/06/24 03:30:12;;;;;;;2.13;0.88;;;18.80;99.90;;;;;;5041769;28;20044;-82
2022/06/24 03:32:38;;;;;;;3.35;0.75;;;18.90;99.90;;;;;;5039432;28;20123;-82
2022/06/24 03:35:05;;;;;;;1.98;0.77;;;18.90;99.90;;;;;;5038140;28;20029;-80
2022/06/24 03:37:31;;;;;;;2.83;0.95;;;18.90;99.90;;;;;;5041688;28;20032;-82
2022/06/24 03:39:58;;;;;;;3.15;0.93;;;19.00;99.90;;;;;;5040032;28;20427;-80
2022/06/24 03:42:24;;;;;;;2.25;0.80;;;19.10;99.90;;;;;;5021074;28;20482;-83
2022/06/24 03:44:50;;;;;;;0.90;0.90;;;19.10;99.90;;;;;;5039597;28;20025;-80
2022/06/24 03:47:15;;;;;;;5.82;1.85;;;19.10;99.90;;;;;;5038861;28;20032;-82
2022/06/24 03:49:41;;;;;;;3.63;0.70;;;19.10;99.80;;;;;;5040563;28;20048;-80
2022/06/24 03:52:08;;;;;;;4.20;0.85;;;19.20;99.70;;;;;;5042011;28;20101;-82
2022/06/24 03:54:34;;;;;;;2.80;0.85;;;19.20;99.60;;;;;;5039874;28;20029;-82
2022/06/24 03:57:00;;;;;;;3.67;1.25;;;19.20;99.70;;;;;;5039922;28;20399;-83
2022/06/24 03:59:26;;;;;;;4.25;0.98;;;19.30;99.40;;;;;;5040968;28;20028;-82
2022/06/24 04:01:52;;;;;;;2.47;0.80;;;19.30;99.10;;;;;;5041055;28;20025;-83
2022/06/24 04:04:18;;;;;;;2.47;0.88;;;19.40;98.70;;;;;;5035807;28;20032;-84
2022/06/24 04:06:43;;;;;;;1.85;1.00;;;19.40;98.50;;;;;;5049470;28;20041;-83
2022/06/24 04:09:09;;;;;;;1.75;0.50;;;19.40;98.40;;;;;;5041420;28;20032;-80
2022/06/24 04:11:35;;;;;;;5.72;0.82;;;19.50;98.10;;;;;;5039256;28;20026;-80
2022/06/24 04:14:01;;;;;;;5.70;1.23;;;19.50;98.00;;;;;;5038223;28;20045;-81
2022/06/24 04:16:27;;;;;;;2.13;0.93;;;19.60;97.60;;;;;;5038423;28;20029;-82
2022/06/24 04:18:53;;;;;;;3.40;1.00;;;19.50;97.60;;;;;;5039206;28;20025;-82
2022/06/24 04:21:19;;;;;;;1.95;1.02;;;19.50;97.60;;;;;;5038811;28;20021;-82
2022/06/24 04:23:46;;;;;;;2.22;1.10;;;19.50;97.90;;;;;;5041074;28;20036;-81
2022/06/24 04:26:12;;;;;;;1.98;0.80;;;19.60;97.80;;;;;;5021266;28;20029;-82
2022/06/24 04:28:38;;;;;;;1.48;0.73;;;19.60;97.70;;;;;;5039105;28;20426;-80
2022/06/24 04:31:05;;;;;;;2.30;1.27;;;19.60;97.60;;;;;;5038889;28;20540;-81
2022/06/24 04:33:31;;;;;;;4.80;1.00;;;19.60;97.40;;;;;;5040678;28;20034;-82
2022/06/24 04:35:56;;;;;;;3.50;0.93;;;19.60;97.50;;;;;;5038765;28;20081;-82
2022/06/24 04:38:23;;;;;;;2.60;0.93;;;19.60;97.50;;;;;;5038725;28;20119;-81
2022/06/24 04:40:49;;;;;;;0.98;0.80;;;19.70;97.60;;;;;;5021481;28;20033;-84
2022/06/24 04:43:14;;;;;;;1.63;0.65;;;19.80;97.60;;;;;;5038504;28;20022;-81
2022/06/24 04:45:42;;;;;;;0.88;0.70;;;19.90;97.40;;;;;;5053533;28;20033;-82
2022/06/24 04:48:08;;;;;;;0.98;0.70;;;19.90;97.30;;;;;;5039980;28;20029;-80
2022/06/24 04:50:34;;;;;;;2.35;1.30;;;20.00;97.40;;;;;;5021406;28;20398;-83
2022/06/24 04:53:00;;;;;;;1.88;1.08;;;20.00;97.40;;;;;;5020790;28;20025;-83
2022/06/24 04:55:26;;;;;;;0.75;0.60;;;20.10;97.50;;;;;;5038072;28;20031;-82
2022/06/24 04:57:51;;;;;;;0.75;0.75;;;20.10;97.50;;;;;;5038987;28;20057;-83
2022/06/24 05:00:17;;;;;;;3.13;0.90;;;20.10;97.70;;;;;;5039388;28;20047;-82
2022/06/24 05:02:43;;;;;;;2.40;0.85;;;20.10;97.50;;;;;;5039226;28;20029;-81
2022/06/24 05:05:10;;;;;;;1.15;0.55;;;20.20;97.30;;;;;;5038436;28;20116;-81
2022/06/24 05:07:37;;;;;;;1.27;0.65;;;20.20;97.10;;;;;;5041006;28;20025;-83
2022/06/24 05:10:03;;;;;;;0.82;0.82;;;20.30;96.90;;;;;;5038834;28;20029;-83
2022/06/24 05:12:29;;;;;;;2.03;0.70;;;20.30;96.50;;;;;;5038379;28;20059;-80
2022/06/24 05:14:54;;;;;;;1.30;0.85;;;20.30;96.30;;;;;;5040709;28;20386;-81
2022/06/24 05:17:20;;;;;;;2.40;0.85;;;20.30;96.10;;;;;;5037224;28;20052;-82
2022/06/24 05:19:46;;;;;;;1.33;0.70;;;20.30;96.00;;;;;;5025976;28;20029;-82
2022/06/24 05:22:11;;;;;;;3.15;0.80;;;20.30;96.10;;;;;;5019024;28;20018;-84
2022/06/24 05:24:37;;;;;;;1.05;0.73;;;20.30;96.10;;;;;;5020708;28;20021;-84
2022/06/24 05:27:04;;;;;;;4.60;1.15;;;20.30;96.10;;;;;;5038263;28;20145;-81
2022/06/24 05:29:29;;;;;;;0.75;0.68;;;20.40;96.20;;;;;;5043368;28;20487;-80
2022/06/24 05:31:55;;;;;;;4.18;0.80;;;20.40;96.40;;;;;;5048085;28;20025;-80
2022/06/24 05:34:21;;;;;;;1.80;0.80;;;20.40;96.40;;;;;;5054462;28;20042;-82
2022/06/24 05:36:46;;;;;;;2.72;1.05;;;20.50;96.20;;;;;;5046213;28;20024;-81
2022/06/24 05:39:12;;;;;;;2.35;1.00;;;20.40;96.00;;;;;;5047974;28;20009;-80
2022/06/24 05:41:41;;;;;;;2.13;0.82;;;20.40;96.00;;;;;;5026441;28;20097;-81
2022/06/24 05:44:09;;;;;;;2.55;0.95;;;20.40;95.90;;;;;;5020044;28;20038;-80
2022/06/24 05:46:35;;;;;;;4.65;1.80;;;20.40;96.00;;;;;;5038116;28;20021;-81
2022/06/24 05:49:00;;;;;;;5.72;2.17;;;20.40;95.90;;;;;;5041383;28;20032;-81
2022/06/24 05:51:27;;;;;;;8.90;2.35;;;20.30;96.00;;;;;;5038429;28;20026;-80
2022/06/24 05:56:37;;;;;;;5.88;1.75;;;20.50;96.30;;;;;;5039079;28;20101;-80
2022/06/24 05:59:04;;;;;;;3.35;1.52;;;20.60;95.90;;;;;;5048933;28;20029;-81
2022/06/24 06:01:30;;;;;;;4.47;2.22;;;20.70;95.50;;;;;;5049790;28;20049;-81
2022/06/24 06:03:56;;;;;;;1.95;1.10;;;20.80;95.10;;;;;;5039067;28;20017;-81
2022/06/24 06:06:21;;;;;;;1.83;1.10;;;20.90;94.70;;;;;;5038323;28;20064;-81
2022/06/24 06:08:47;;;;;;;2.25;1.10;;;21.10;94.10;;;;;;5053731;28;20382;-81
2022/06/24 06:11:21;;;;;;;2.78;1.52;;;21.30;93.60;;;;;;5059767;28;20037;-81
2022/06/24 06:13:51;;;;;;;0.93;0.70;;;21.40;92.90;;;;;;5058349;28;20052;-81
2022/06/24 06:16:18;;;;;;;1.80;0.60;;;21.80;92.10;;;;;;5052136;28;20021;-81
2022/06/24 06:18:45;;;;;;;1.02;0.70;;;22.10;91.40;;;;;;5039678;28;20498;-82
2022/06/24 06:21:11;;;;;;;1.90;1.00;;;22.30;90.80;;;;;;5058648;28;20095;-84
2022/06/24 06:23:38;;;;;;;3.38;0.70;;;22.30;90.60;;;;;;5040665;28;20026;-85
2022/06/24 06:26:06;;;;;;;0.68;0.68;;;22.50;90.00;;;;;;5040134;28;20108;-86
2022/06/24 06:28:32;;;;;;;0.88;0.60;;;22.70;88.40;;;;;;5047647;28;20056;-86
2022/06/24 06:30:58;;;;;;;1.75;1.00;;;22.90;86.90;;;;;;5058986;28;20017;-85
2022/06/24 06:33:24;;;;;;;3.80;1.08;;;23.30;85.20;;;;;;5059891;28;20087;-85
2022/06/24 06:35:50;;;;;;;2.83;1.52;;;23.70;83.00;;;;;;5059206;28;20032;-84
2022/06/24 06:38:16;;;;;;;1.17;0.60;;;24.60;82.40;;;;;;5062013;28;20021;-85
2022/06/24 06:40:43;;;;;;;0.73;0.57;;;26.00;75.90;;;;;;5050247;28;20106;-85
2022/06/24 06:43:09;;;;;;;1.15;0.70;;;27.00;70.00;;;;;;5038646;28;20076;-85
2022/06/24 06:45:36;;;;;;;1.33;0.70;;;26.90;67.50;;;;;;5038074;28;20026;-85
2022/06/24 06:48:03;;;;;;;2.00;1.20;;;26.20;67.70;;;;;;5038348;28;20005;-84
2022/06/24 06:50:29;;;;;;;3.28;1.23;;;25.30;69.50;;;;;;5038214;28;20022;-85
2022/06/24 06:52:55;;;;;;;1.35;0.93;;;24.70;71.40;;;;;;5036509;28;20089;-87
2022/06/24 06:55:21;;;;;;;0.88;0.88;;;24.30;73.30;;;;;;5036387;28;20116;-85
2022/06/24 06:57:47;;;;;;;1.23;0.70;;;24.10;74.30;;;;;;5039161;28;20030;-85
2022/06/24 07:00:14;;;;;;;1.25;1.05;;;24.30;74.00;;;;;;5040720;28;20025;-84
2022/06/24 07:02:40;;;;;;;1.10;0.60;;;24.40;73.90;;;;;;5041844;28;20107;-84
2022/06/24 07:05:07;;;;;;;1.20;0.57;;;24.40;73.90;;;;;;5039977;28;20018;-86
2022/06/24 07:07:33;;;;;;;0.82;0.50;;;25.30;75.60;;;;;;5041926;28;20052;-82
2022/06/24 07:09:59;;;;;;;3.72;1.02;;;28.10;68.50;;;;;;5047669;28;20057;-82
2022/06/24 07:12:26;;;;;;;1.65;0.70;;;29.70;61.30;;;;;;5045852;28;20040;-82
2022/06/24 07:14:52;;;;;;;1.95;0.65;;;31.40;58.40;;;;;;5032106;28;20032;-83
2022/06/24 07:17:20;;;;;;;1.05;0.68;;;33.00;54.10;;;;;;5053594;28;20025;-84
2022/06/24 07:19:46;;;;;;;1.13;1.00;;;33.10;51.70;;;;;;5049836;28;20029;-82
2022/06/24 07:22:13;;;;;;;0.80;0.80;;;33.60;50.80;;;;;;5051483;28;20029;-80
2022/06/24 07:24:39;;;;;;;1.25;1.15;;;32.90;50.10;;;;;;5058155;28;20036;-82
2022/06/24 07:27:08;;;;;;;1.15;0.95;;;31.70;51.40;;;;;;5069720;28;20092;-82
2022/06/24 07:29:34;;;;;;;1.33;0.77;;;30.40;53.40;;;;;;5066561;28;20087;-82
2022/06/24 07:32:04;;;;;;;2.85;1.20;;;29.20;55.80;;;;;;5038710;28;20037;-83
2022/06/24 07:34:31;;;;;;;4.68;1.35;;;28.30;57.50;;;;;;5044957;28;20005;-82
2022/06/24 07:37:00;;;;;;;2.17;1.05;;;27.50;59.60;;;;;;5032179;28;20023;-81
2022/06/24 07:39:27;;;;;;;2.13;1.60;;;26.80;61.90;;;;;;5047187;28;20033;-82
2022/06/24 07:41:54;;;;;;;4.88;1.65;;;26.40;63.40;;;;;;5027272;28;20143;-82
2022/06/24 07:44:20;;;;;;;8.38;1.42;;;26.20;64.40;;;;;;5048744;28;20032;-80
2022/06/24 07:46:47;;;;;;;6.50;1.75;;;26.00;65.30;;;;;;5035751;28;20029;-81
2022/06/24 07:49:12;;;;;;;3.67;1.40;;;26.00;66.30;;;;;;5046119;28;20033;-81
2022/06/24 07:51:38;;;;;;;4.22;1.92;;;26.10;66.00;;;;;;5048471;28;20029;-82
2022/06/24 07:54:05;;;;;;;32.17;4.20;;;26.10;65.30;;;;;;5054752;28;20021;-81
2022/06/24 07:59:17;;;;;;;6.15;1.60;;;26.20;64.80;;;;;;5046578;28;20029;-81
2022/06/24 08:01:42;;;;;;;1.83;0.98;;;26.10;65.40;;;;;;5032960;28;20038;-83
2022/06/24 08:04:08;;;;;;;6.82;1.80;;;26.00;65.80;;;;;;5046599;28;20083;-82
2022/06/24 08:06:40;;;;;;;64.75;7.57;;;25.90;64.80;;;;;;5041079;28;20033;-83
2022/06/24 08:09:06;;;;;;;9.55;3.03;;;25.70;65.30;;;;;;5047138;28;20457;-85
2022/06/24 08:11:32;;;;;;;7.30;2.05;;;25.40;66.60;;;;;;5042960;28;20104;-84
2022/06/24 08:13:58;;;;;;;9.38;2.10;;;25.30;67.10;;;;;;5048781;28;20025;-84
2022/06/24 08:16:23;;;;;;;5.03;1.70;;;25.30;68.50;;;;;;5059974;28;20029;-85
2022/06/24 08:18:50;;;;;;;5.72;1.88;;;25.00;69.20;;;;;;5053663;28;20092;-84
2022/06/24 08:21:16;;;;;;;14.30;2.95;;;24.70;69.80;;;;;;5044828;28;20025;-81
2022/06/24 08:23:41;;;;;;;7.90;2.10;;;24.50;70.50;;;;;;5060217;28;20051;-83
2022/06/24 08:26:07;;;;;;;19.13;4.47;;;24.40;71.20;;;;;;5045334;28;20056;-82
2022/06/24 08:28:34;;;;;;;10.02;2.47;;;24.40;72.00;;;;;;5049652;28;20037;-84
2022/06/24 08:31:01;;;;;;;5.20;2.25;;;24.50;72.00;;;;;;5049315;28;20025;-83
2022/06/24 08:33:27;;;;;;;6.70;2.22;;;24.60;72.20;;;;;;5064826;28;20025;-82
2022/06/24 08:35:52;;;;;;;4.22;1.70;;;24.70;71.60;;;;;;5066216;28;20052;-85
2022/06/24 08:38:18;;;;;;;2.35;1.45;;;24.80;71.10;;;;;;5061922;28;20043;-83
2022/06/24 08:40:49;;;;;;;4.40;1.55;;;24.90;70.90;;;;;;5054300;28;20033;-83
2022/06/24 08:43:16;;;;;;;5.70;1.52;;;25.10;70.00;;;;;;5063299;28;20025;-83
2022/06/24 08:45:42;;;;;;;3.53;1.58;;;25.30;68.40;;;;;;5047901;28;20039;-83
2022/06/24 08:48:09;;;;;;;6.25;2.15;;;25.50;67.80;;;;;;5031150;28;20035;-82
2022/06/24 08:50:34;;;;;;;3.22;1.52;;;25.70;66.30;;;;;;5048360;28;20029;-86
2022/06/24 08:53:06;;;;;;;3.47;1.88;;;26.10;65.40;;;;;;5065347;28;20032;-83
2022/06/24 08:55:35;;;;;;;4.25;1.58;;;26.40;63.70;;;;;;5053381;28;20477;-84
2022/06/24 08:58:09;;;;;;;4.60;1.52;;;26.70;63.00;;;;;;5046795;28;20120;-84
2022/06/24 09:00:36;;;;;;;3.60;1.50;;;27.00;62.50;;;;;;5060269;28;20025;-84
2022/06/24 09:03:04;;;;;;;3.95;1.75;;;27.60;61.50;;;;;;5061202;28;20047;-83
2022/06/24 09:05:30;;;;;;;1.95;1.52;;;27.60;59.90;;;;;;5052430;28;20029;-83
2022/06/24 09:08:15;;;;;;;4.22;1.52;;;27.70;60.60;;;;;;5058217;28;20040;-83
2022/06/24 09:10:44;;;;;;;3.35;1.80;;;27.90;59.50;;;;;;5035071;28;20045;-82
2022/06/24 09:13:21;;;;;;;6.15;1.92;;;27.80;59.60;;;;;;5027967;28;20056;-82
2022/06/24 09:15:54;;;;;;;5.68;1.52;;;27.60;59.30;;;;;;5045195;28;20368;-83
2022/06/24 09:18:21;;;;;;;4.60;1.50;;;27.60;59.40;;;;;;5045519;28;20053;-84
2022/06/24 09:20:49;;;;;;;9.30;2.10;;;27.60;59.90;;;;;;5023928;28;20026;-83
2022/06/24 09:23:15;;;;;;;6.28;2.20;;;27.60;59.20;;;;;;5040924;28;20009;-82
2022/06/24 09:25:52;;;;;;;4.25;2.10;;;27.40;58.80;;;;;;5063058;28;20032;-83
2022/06/24 09:28:24;;;;;;;6.45;2.30;;;27.20;60.20;;;;;;5048255;28;20044;-83
2022/06/24 09:30:58;;;;;;;7.22;1.70;;;27.00;60.30;;;;;;5026565;28;20085;-83
2022/06/24 09:33:24;;;;;;;4.53;1.67;;;27.00;61.00;;;;;;5028364;28;20088;-86
2022/06/24 09:36:00;;;;;;;3.55;1.77;;;27.30;60.20;;;;;;5044259;28;20021;-85
2022/06/24 09:38:26;;;;;;;5.53;2.35;;;27.50;59.30;;;;;;5062171;28;20083;-84
2022/06/24 09:41:04;;;;;;;5.25;2.08;;;27.90;58.30;;;;;;5052402;28;20390;-83
2022/06/24 09:43:31;;;;;;;6.95;2.00;;;28.00;56.20;;;;;;5044076;28;20082;-83
2022/06/24 09:45:58;;;;;;;8.15;2.45;;;27.80;56.40;;;;;;5043296;28;20033;-83
2022/06/24 09:48:28;;;;;;;7.70;2.03;;;27.50;56.20;;;;;;5033534;28;20017;-81
2022/06/24 09:50:56;;;;;;;6.63;1.95;;;27.30;57.10;;;;;;5037093;28;20037;-84
2022/06/24 09:53:26;;;;;;;5.93;1.90;;;27.20;55.90;;;;;;5051780;28;20021;-83
2022/06/24 09:55:53;;;;;;;4.82;1.67;;;27.00;56.90;;;;;;5048485;28;20401;-81
2022/06/24 09:58:20;;;;;;;2.85;1.30;;;27.00;57.00;;;;;;5043480;28;20025;-83
2022/06/24 10:00:50;;;;;;;2.85;1.30;;;27.20;56.20;;;;;;5033991;28;20083;-84
2022/06/24 10:03:16;;;;;;;3.50;1.63;;;27.50;55.20;;;;;;5050601;28;20074;-83
2022/06/24 10:05:47;;;;;;;2.42;1.42;;;27.70;55.10;;;;;;5058732;28;20064;-84
2022/06/24 10:08:19;;;;;;;2.67;1.30;;;28.00;54.70;;;;;;5063600;28;20029;-85
2022/06/24 10:10:44;;;;;;;4.90;1.30;;;28.40;53.10;;;;;;5047282;28;20059;-84
2022/06/24 10:13:34;;;;;;;3.63;1.73;;;28.60;53.00;;;;;;5055935;28;20116;-84
2022/06/24 10:16:08;;;;;;;5.90;1.95;;;28.80;52.00;;;;;;5042794;28;20043;-84
2022/06/24 10:18:40;;;;;;;2.20;1.20;;;28.90;51.70;;;;;;5025730;28;20029;-84
2022/06/24 10:21:08;;;;;;;2.05;1.30;;;28.90;51.30;;;;;;5044484;28;20052;-85
2022/06/24 10:23:40;;;;;;;3.85;1.40;;;28.70;51.70;;;;;;5044220;28;20082;-83
2022/06/24 10:26:17;;;;;;;1.65;1.15;;;28.90;51.90;;;;;;5029118;28;20030;-83
2022/06/24 10:29:04;;;;;;;4.72;2.15;;;29.20;51.20;;;;;;5046786;28;20411;-84
2022/06/24 10:31:54;;;;;;;4.65;1.60;;;29.40;50.00;;;;;;5045524;28;20025;-84
2022/06/24 10:34:22;;;;;;;9.02;2.00;;;29.10;50.40;;;;;;5058152;28;20578;-84
2022/06/24 10:36:52;;;;;;;4.95;1.42;;;29.10;50.30;;;;;;5032361;28;20021;-83
2022/06/24 10:39:20;;;;;;;2.65;1.60;;;29.10;49.80;;;;;;5023844;28;20084;-83
2022/06/24 10:41:45;;;;;;;5.93;2.22;;;29.20;50.20;;;;;;5032623;28;20021;-82
2022/06/24 10:44:34;;;;;;;4.45;1.75;;;29.60;49.00;;;;;;5057274;28;20056;-84
2022/06/24 10:47:12;;;;;;;4.97;1.80;;;29.70;49.00;;;;;;5045274;28;20441;-82
2022/06/24 10:49:55;;;;;;;5.25;1.48;;;29.50;48.80;;;;;;5058323;28;20025;-84
2022/06/24 10:52:55;;;;;;;4.07;1.52;;;29.40;48.80;;;;;;5066365;28;20095;-82
2022/06/24 10:55:21;;;;;;;6.13;1.83;;;29.60;48.80;;;;;;5030933;28;20044;-82
2022/06/24 10:58:04;;;;;;;4.22;1.50;;;29.70;47.80;;;;;;5044067;28;20101;-83
2022/06/24 11:00:39;;;;;;;3.58;1.75;;;30.00;48.30;;;;;;5040785;28;20046;-83
2022/06/24 11:03:05;;;;;;;4.38;1.30;;;29.80;47.60;;;;;;5064585;28;20025;-83
2022/06/24 11:05:34;;;;;;;5.45;1.70;;;29.40;48.00;;;;;;5053387;28;20026;-82
2022/06/24 11:08:00;;;;;;;4.65;1.13;;;29.10;48.20;;;;;;5061492;28;20052;-82
2022/06/24 11:10:32;;;;;;;3.60;1.80;;;28.90;49.00;;;;;;5062280;28;20296;-86
2022/06/24 11:13:00;;;;;;;4.13;1.70;;;28.90;47.40;;;;;;5067865;28;20013;-83
2022/06/24 11:15:36;;;;;;;4.30;1.90;;;28.80;48.00;;;;;;5057877;28;20029;-83
2022/06/24 11:18:10;;;;;;;5.13;1.85;;;28.70;48.20;;;;;;5039234;28;20104;-84
2022/06/24 11:20:41;;;;;;;5.22;1.88;;;28.70;48.80;;;;;;5049334;28;20394;-83
2022/06/24 11:23:12;;;;;;;3.50;1.67;;;28.80;47.30;;;;;;5061313;28;20029;-84
2022/06/24 11:25:39;;;;;;;3.60;1.40;;;28.70;48.00;;;;;;5069203;28;20078;-83
2022/06/24 11:28:16;;;;;;;1.65;1.05;;;28.70;47.70;;;;;;5054050;28;20092;-81
2022/06/24 11:30:42;;;;;;;4.50;2.00;;;28.80;48.50;;;;;;5036299;28;20040;-82
2022/06/24 11:33:07;;;;;;;5.82;1.52;;;29.10;50.70;;;;;;5065109;28;20033;-83
2022/06/24 11:35:33;;;;;;;6.60;2.67;;;29.20;51.80;;;;;;5068836;28;20436;-84
2022/06/24 11:38:04;;;;;;;7.88;2.25;;;29.20;51.50;;;;;;5072397;28;20019;-81
2022/06/24 11:40:33;;;;;;;3.25;2.00;;;29.30;51.90;;;;;;5039183;28;20037;-81
2022/06/24 11:43:04;;;;;;;3.63;1.33;;;30.00;50.90;;;;;;5066248;28;20026;-82
2022/06/24 11:45:38;;;;;;;6.70;2.13;;;30.40;49.50;;;;;;5057270;28;20029;-77
2022/06/24 11:48:05;;;;;;;8.00;2.22;;;30.50;48.80;;;;;;5040718;28;20021;-80
2022/06/24 11:50:33;;;;;;;5.45;1.40;;;30.50;49.40;;;;;;5072064;28;20094;-80
2022/06/24 11:53:00;;;;;;;5.90;1.83;;;30.40;50.00;;;;;;5071554;28;20025;-82
2022/06/24 11:55:27;;;;;;;10.18;2.38;;;30.40;49.70;;;;;;5037074;28;20021;-80
2022/06/24 11:57:57;;;;;;;4.38;1.73;;;30.20;50.00;;;;;;5070067;28;20033;-78
2022/06/24 12:00:25;;;;;;;2.60;1.05;;;30.10;50.70;;;;;;5055760;28;20018;-80
2022/06/24 12:02:53;;;;;;;5.30;2.03;;;30.30;50.30;;;;;;5055309;28;20040;-81
2022/06/24 12:05:21;;;;;;;4.65;2.03;;;30.10;49.90;;;;;;5067786;28;20036;-83
2022/06/24 12:07:48;;;;;;;7.43;2.10;;;29.50;51.70;;;;;;5070846;28;20020;-83
2022/06/24 12:10:14;;;;;;;6.32;1.75;;;29.00;53.30;;;;;;5052792;28;20124;-83
2022/06/24 12:12:59;;;;;;;7.18;2.00;;;28.70;53.80;;;;;;5049343;28;20083;-79
2022/06/24 12:15:46;;;;;;;6.13;1.77;;;28.50;54.00;;;;;;5049496;28;20024;-83
2022/06/24 12:18:13;;;;;;;6.43;2.35;;;28.10;55.30;;;;;;5040442;28;20042;-82
2022/06/24 12:20:38;;;;;;;7.38;1.67;;;27.90;55.60;;;;;;5047388;28;20089;-81
2022/06/24 12:23:22;;;;;;;4.10;1.92;;;27.70;55.60;;;;;;5028204;28;20021;-82
2022/06/24 12:25:49;;;;;;;6.85;1.70;;;27.50;56.00;;;;;;5046373;28;20026;-83
2022/06/24 12:28:16;;;;;;;4.80;1.88;;;27.40;55.50;;;;;;5044531;28;20027;-82
2022/06/24 12:30:44;;;;;;;7.72;1.67;;;27.30;55.90;;;;;;5045805;28;20013;-83
2022/06/24 12:33:17;;;;;;;4.90;2.03;;;27.20;56.00;;;;;;5045541;28;20020;-84
2022/06/24 12:35:43;;;;;;;8.43;1.85;;;27.20;56.10;;;;;;5045995;28;20081;-84
2022/06/24 12:38:13;;;;;;;6.20;1.80;;;27.20;56.10;;;;;;5029100;28;20024;-83
2022/06/24 12:40:40;;;;;;;4.28;1.90;;;27.10;56.80;;;;;;5044934;28;20167;-82
2022/06/24 12:43:13;;;;;;;6.15;1.60;;;27.00;57.30;;;;;;5045170;28;20021;-83
2022/06/24 12:45:42;;;;;;;3.45;1.75;;;26.80;58.50;;;;;;5045638;28;20049;-82
2022/06/24 12:51:06;;;;;;;3.42;1.40;;;26.20;60.60;;;;;;5028165;28;20056;-84
2022/06/24 12:53:33;;;;;;;5.47;1.60;;;26.00;61.50;;;;;;5027442;28;20182;-83
2022/06/24 12:55:59;;;;;;;8.40;1.85;;;26.00;61.90;;;;;;5056109;28;20387;-83
2022/06/24 12:58:25;;;;;;;7.85;1.92;;;26.00;61.50;;;;;;5045214;28;20052;-82
2022/06/24 13:00:51;;;;;;;3.13;1.13;;;26.00;62.00;;;;;;5044553;28;20471;-84